Tiempo atmosférico en la estación meteorológica de Chinchilla, Albacete (880 m.)



Fecha
DESCASC
Temp. máxima en grados centígrados (hora)
DESCASC
Temp. mínima en grados centígrados (hora)
DESCASC
Temp. media en grados centígrados
DESCASC
Racha de viento máxima en m/sg (hora)
DESCASC
Velocidad máxima media en intervalos de 10 minutos(hora)
DESCASC
Precipitaciones diarias en mm
DESCASC
Precipitaciones de 00:00 a 06:00 en mm
DESCASC
Precipitaciones de 06:00 a 12:00 en mm
DESCASC
Precipitaciones de 12:00 a 18:00 en mm
DESCASC
Precipitaciones de 18:00 a 24:00 en mm
DESCASC
20-09-2018 28.5 (17:10) 14.4 (10:30) 21.4 6.94 (18:30) 4.72 (01:10) 0.1 0 0.1 0 0
19-09-2018 27.4 (18:50) 13.4 (10:00) 20.4 8.61 (00:10) 5.83 (00:10) 1.8 1.8 0 0 0
18-09-2018 26.5 (18:30) 15.3 (10:10) 20.9 16.39 (22:50) 8.33 (23:00) 0 0 0 0 0
17-09-2018 24.4 (16:40) 13.8 (09:10) 19.1 10 (15:50) 6.39 (19:40) 0 0 0 0 0
16-09-2018 27 (19:20) 11.8 (00:00) 19.4 7.5 (21:10) 4.44 (23:20) 0.1 0 0.1 0 0
15-09-2018 23.1 (13:40) 13.6 (00:00) 18.4 8.89 (12:20) 5.28 (13:20) 3.2 0 0 3 0.2
14-09-2018 27.2 (16:00) 15.4 (00:00) 21.3 8.89 (18:10) 5.83 (21:20) 0 0 0 0 0
13-09-2018 28.2 (18:00) 15.1 (00:00) 21.7 7.22 (22:40) 3.89 (22:50) 0 0 0 0 0
12-09-2018 26.2 (18:40) 15 (00:00) 20.6 6.67 (00:40) 5 (05:20) 0 0 0 0 0
11-09-2018 23.4 (15:20) 13.6 (00:00) 18.5 10.83 (00:50) 6.39 (12:00) 0 0 0 0 0
10-09-2018 24.5 (18:20) 12.5 (00:00) 18.5 10.83 (19:00) 7.22 (20:20) 17 12.3 4.7 0 0
09-09-2018 25.1 (18:40) 12.5 (00:00) 18.8 10 (20:50) 6.94 (20:40) 0.3 0 0.1 0 0.2
08-09-2018 20.8 (17:00) 13.1 (00:00) 16.9 13.89 (15:10) 9.44 (14:40) 0.5 0 0 0.1 0.4
07-09-2018 26.2 (17:50) 15.1 (00:00) 20.7 12.22 (09:20) 7.78 (13:20) 0 0 0 0 0
06-09-2018 27.6 (17:40) 13.8 (00:00) 20.7 9.17 (07:30) 6.11 (06:20) 0 0 0 0 0
05-09-2018 29 (19:20) 14.8 (00:00) 21.9 7.78 (21:50) 4.72 (22:30) 0 0 0 0 0
04-09-2018 29.4 (17:40) 16 (00:00) 22.7 10 (19:50) 6.11 (19:50) 0 0 0 0 0
03-09-2018 29.6 (17:00) 17.3 (00:00) 23.4 22.5 (19:40) 13.89 (19:40) 1.5 0.8 0.4 0.3 0
02-09-2018 32.6 (18:20) 15.1 (00:00) 23.8 7.22 (21:10) 5.28 (06:00) 0 0 0 0 0
01-09-2018 29.5 (18:50) 16.2 (00:00) 22.9 8.89 (13:00) 6.11 (13:10) 0 0 0 0 0
31-08-2018 31.2 (19:20) 16.2 (00:00) 23.7 7.22 (18:10) 5.28 (05:20) 0 0 0 0 0
30-08-2018 28 (18:10) 15.7 (00:00) 21.8 9.72 (16:10) 6.39 (16:20) 2.2 2.2 0 0 0
29-08-2018 31.8 (19:10) 16.4 (00:00) 24.1 15 (23:20) 10 (23:20) 0.2 0 0 0 0.2
28-08-2018 30.9 (18:30) 17.1 (00:00) 24 17.78 (23:00) 10.56 (23:00) 0 0 0 0 0
27-08-2018 31.9 (19:10) 17.5 (00:00) 24.7 8.61 (17:20) 5.83 (21:40) 0 0 0 0 0
26-08-2018 31.4 (18:30) 17.1 (00:00) 24.3 9.17 (00:40) 6.39 (01:50) 0 0 0 0 0
25-08-2018 31.2 (19:30) 13.8 (00:00) 22.5 9.17 (17:40) 4.17 (19:30) 0 0 0 0 0
24-08-2018 31.2 (18:20) 14.7 (00:00) 23 10 (20:50) 6.67 (20:50) 0 0 0 0 0

Gráficas

Temp. máximas Temp. mínimas Temp. medias Precipitaciones Rachas de viento máximas Velocidades máximas media en intervalos de 10 minutos

Datos horarios

Fecha y hora oficial Temperatura (ºC) Velocidad del viento (km/h) Dirección del viento Racha (km/h) Dirección de racha Precipitación (mm) Presión (hPa) Tendencia (hPa) Humedad (%)
2018-09-22 23:00:00 22.9 8 Sur 15 Sudoeste 0 923.3 1 36
2018-09-22 22:00:00 25.6 5 Nordeste 13 Norte 0 922.6 -0.1 29
2018-09-22 21:00:00 28.2 5 Norte 18 Noroeste 0 922.3 -0.6 26
2018-09-22 20:00:00 28.5 9 Noroeste 17 Oeste 0 922.3 -0.8 27
2018-09-22 19:00:00 28.7 6 Oeste 21 Sudoeste 0 922.7 -1 28
2018-09-22 18:00:00 30.5 8 Oeste 22 Sudoeste 0 922.9 -1.1 27
2018-09-22 17:00:00 30.3 7 Sudoeste 19 Sudoeste 0 923.1 -0.9 28
2018-09-22 16:00:00 29.8 13 Sudoeste 22 Sudoeste 0 923.7 -0.4 29
2018-09-22 15:00:00 28.5 10 Sudoeste 20 Sudoeste 0 924 0.3 32
2018-09-22 14:00:00 27.3 9 Sudoeste 16 Sudoeste 0 924 0.8 41
2018-09-22 13:00:00 24.7 3 Sur 8 Sur 0 924.1 1.3 49
2018-09-22 12:00:00 21.9 3 Sudeste 6 Sur 0 923.7 1.4 59
2018-09-22 11:00:00 18.6 0 Calma 10 Sudeste 0 923.2 1.1 71
2018-09-22 10:00:00 17.3 9 Sudeste 17 Este 0 922.8 1.1 75
2018-09-22 09:00:00 17.5 10 Sudeste 14 Sudeste 0 922.3 0.4 74
2018-09-22 08:00:00 17.9 9 Sudeste 17 Sudeste 0 922.1 0 75
2018-09-22 07:00:00 17.7 13 Este 18 Este 0 921.7 -0.4 75
2018-09-22 06:00:00 18 13 Sudeste 20 Sudeste 0 921.9 -0.1 75
2018-09-22 05:00:00 17.9 15 Este 19 Sudeste 0 922.1 0.4 72
2018-09-22 04:00:00 18.6 10 Sudeste 16 Este 0 922.1 0.6 67
2018-09-22 03:00:00 19.5 6 Sudeste 12 Sur 0 922 0.9 62
2018-09-22 02:00:00 19.7 7 Sudeste 12 Sudeste 0 921.7 1.5 55
2018-09-22 01:00:00 21 5 Sudeste 13 Sur 0 921.5 1.9 49
2018-09-22 00:00:00 21.5 6 Sudeste 18 Sudeste 0 921.1 2 44
2018-09-21 23:00:00 22.3 7 Nordeste 9 Nordeste 0 920.2 1.2 31
2018-09-21 22:00:00 24.7 6 Nordeste 10 Nordeste 0 919.6 0.5 27
2018-09-21 21:00:00 26.9 4 Norte 18 Noroeste 0 919.1 -0.3 25
2018-09-21 20:00:00 28.2 7 Norte 18 Norte 0 919 -0.5 24
2018-09-21 19:00:00 28.7 4 Noroeste 21 Norte 0 919.1 -1 25
2018-09-21 18:00:00 28.3 9 Nordeste 23 Norte 0 919.4 -1.3 27
2018-09-21 17:00:00 26.9 13 Norte 23 Noroeste 0 919.5 -1.5 31
2018-09-21 16:00:00 26.1 10 Norte 21 Norte 0 920.1 -0.5 36
2018-09-21 15:00:00 24.6 10 Norte 23 Noroeste 0 920.7 0.4 41
2018-09-21 14:00:00 22.7 14 Noroeste 24 Noroeste 0 921 1.1 45
2018-09-21 13:00:00 21.2 8 Norte 20 Norte 0 920.6 1 51
2018-09-21 12:00:00 19.6 10 Norte 25 Norte 0 920.3 1.1 54
2018-09-21 11:00:00 18.3 13 Norte 24 Noroeste 0 919.9 0.9 59
2018-09-21 10:00:00 17.6 12 Noroeste 20 Norte 0 919.6 0.6 60
2018-09-21 09:00:00 16.1 2 Noroeste 8 Noroeste 0 919.2 0.2 73
2018-09-21 08:00:00 16.3 0 Calma 7 Este 0 919 -0.5 86
2018-09-21 07:00:00 16.4 3 Sudeste 13 Sudeste 0 919 -0.7 85
2018-09-21 06:00:00 16.4 10 Sudeste 13 Este 0 919 -1 84
2018-09-21 05:00:00 16.9 8 Sudeste 11 Sudeste 0 919.5 -0.7 80
2018-09-21 04:00:00 17.6 6 Sudeste 14 Sudeste 0 919.7 -0.5 77
2018-09-21 03:00:00 17.7 7 Sudeste 13 Sudeste 0 920 0 72
2018-09-21 02:00:00 18.4 9 Sudeste 13 Sudeste 0 920.2 0.7 63
2018-09-21 01:00:00 19.1 4 Sur 11 Sudeste 0 920.2 1 57
2018-09-21 00:00:00 20.1 10 Sur 20 Sur 0 920 0.8 52
2018-09-20 23:00:00 20.9 8 Sudeste 15 Sudeste 0 919.5 0.6 47
2018-09-20 22:00:00 22.9 7 Sur 18 Sur 0 919.2 0 40
2018-09-20 21:00:00 25.6 14 Sur 24 Sur 0 919.2 -0.6 32
2018-09-20 20:00:00 27.8 6 Sudeste 24 Sudeste 0 918.9 -1 28
2018-09-20 19:00:00 28.1 11 Sudeste 25 Este 0 919.2 -1.7 30
2018-09-20 18:00:00 26.4 3 Sur 18 Noroeste 0 919.8 -1.4 31
2018-09-20 17:00:00 28.3 10 Sudoeste 17 Sudoeste 0 919.9 -1.9 35
2018-09-20 16:00:00 26 6 Oeste 13 Noroeste 0 920.9 -1.2 39
2018-09-20 15:00:00 26.7 6 Sudoeste 17 Sudoeste 0 921.2 -0.8 37
2018-09-20 14:00:00 24.3 4 Sudoeste 10 Sudeste 0 921.8 0.1 41
2018-09-20 13:00:00 22.9 5 Sudeste 10 Sudeste 0 922.1 0.7 50
2018-09-20 12:00:00 20.1 3 Sudeste 6 Sur 0 922 0.6 65
2018-09-20 11:00:00 16.1 0 Calma 5 Este 0.1 921.7 0.2 88
2018-09-20 10:00:00 14.7 0 Calma 8 Este 0 921.4 -0.4 90
2018-09-20 09:00:00 15.3 4 Este 9 Este 0 921.4 -0.6 91
2018-09-20 08:00:00 15.8 2 Sudeste 10 Sudeste 0 921.5 -0.7 91
2018-09-20 07:00:00 16 7 Sudeste 13 Este 0 921.8 -0.6 91
2018-09-20 06:00:00 15.9 9 Sudeste 13 Sudeste 0 922 -0.6 90
2018-09-20 05:00:00 15.9 8 Sudeste 15 Este 0 922.2 -0.7 89
2018-09-20 04:00:00 16 13 Este 17 Este 0 922.4 -0.3 88
2018-09-20 03:00:00 16.1 14 Este 18 Este 0 922.6 0.3 84
2018-09-20 02:00:00 16.6 15 Este 18 Sudeste 0 922.9 1.5 80
2018-09-20 01:00:00 17.2 16 Este 19 Sudeste 0 922.7 1.7 75
2018-09-20 00:00:00 18.1 12 Sudeste 18 Sudeste 0 922.3 1.5 70
2018-09-19 23:00:00 19.4 12 Sudeste 17 Sudeste 0 921.4 0.8 62
2018-09-19 22:00:00 22.1 10 Sudeste 17 Sudeste 0 921 0.6 48
2018-09-19 21:00:00 24.1 12 Sudeste 17 Sudeste 0 920.8 -0.2 41
2018-09-19 20:00:00 25.2 6 Sudeste 19 Sudeste 0 920.6 -0.7 37
2018-09-19 19:00:00 27.3 8 Sudeste 16 Sur 0 920.4 -1.5 37
2018-09-19 18:00:00 24.5 10 Sudeste 18 Sudeste 0 921 -1.2 45
2018-09-19 17:00:00 24.1 0 Calma 17 Norte 0 921.3 -0.9 48
2018-09-19 16:00:00 23.1 9 Norte 22 Norte 0 921.9 -0.1 54
2018-09-19 15:00:00 23.2 9 Oeste 18 Oeste 0 922.2 0.5 57
2018-09-19 14:00:00 22.3 3 Nordeste 14 Nordeste 0 922.2 1.3 49
2018-09-19 13:00:00 20.5 4 Sudoeste 8 Sudoeste 0 922 1.8 67
2018-09-19 12:00:00 18.3 3 Sur 6 Sudoeste 0 921.7 1.6 78
2018-09-19 11:00:00 15.2 2 Nordeste 8 Nordeste 0 920.9 1.1 90
2018-09-19 10:00:00 13.4 6 Nordeste 11 Nordeste 0 920.2 0.4 88
2018-09-19 09:00:00 13.9 0 Calma 4 Sudeste 0 920.1 0.4 88
2018-09-19 08:00:00 13.8 0 Calma 10 Sudeste 0 919.8 0.3 86
2018-09-19 07:00:00 14.1 3 Sudeste 14 Sur 0 919.8 0.2 85
2018-09-19 06:00:00 14.7 3 Este 24 Norte 0 919.7 -0.2 82
2018-09-19 05:00:00 14.9 5 Sudeste 13 Noroeste 0 919.5 -1.1 82
2018-09-19 04:00:00 14.8 6 Norte 11 Norte 0.2 919.6 -0.8 87
2018-09-19 03:00:00 15.4 3 Este 10 Noroeste 0.4 919.9 0.3 87
2018-09-19 02:00:00 15.5 5 Norte 14 Norte 0.6 920.6 1.2 85
2018-09-19 01:00:00 16.8 0 Calma 31 Este 0.6 920.4 2.6 75
2018-09-19 00:00:00 16.6 14 Este 45 Nordeste 0 919.6 2.5 67
2018-09-18 23:00:00 18.6 30 Nordeste 59 Norte 0 919.4 2.8 55
2018-09-18 22:00:00 22.2 8 Sudoeste 12 Sudoeste 0 917.8 0.6 46
2018-09-18 21:00:00 23.9 9 Sudoeste 21 Sudoeste 0 917.1 0.1 42
2018-09-18 20:00:00 25.4 12 Oeste 24 Oeste 0 916.6 -0.8 38
2018-09-18 19:00:00 23.4 8 Noroeste 19 Oeste 0 917.2 -0.7 37
2018-09-18 18:00:00 24.9 8 Noroeste 20 Oeste 0 917 -1.3 37
2018-09-18 17:00:00 23.8 10 Oeste 24 Noroeste 0 917.4 -1.4 42
2018-09-18 16:00:00 23 12 Noroeste 24 Noroeste 0 917.9 -1 45
2018-09-18 15:00:00 21.9 9 Noroeste 18 Noroeste 0 918.3 -0.1 47
2018-09-18 14:00:00 21.7 8 Noroeste 17 Oeste 0 918.8 1.1 55
2018-09-18 13:00:00 20.3 5 Sudoeste 9 Sudoeste 0 918.9 1.7 68
2018-09-18 12:00:00 18.3 5 Sudeste 8 Sur 0 918.4 1.4 87
2018-09-18 11:00:00 16.5 3 Sudeste 11 Sudeste 0 917.7 0.7 91
2018-09-18 10:00:00 15.5 7 Sudeste 9 Sudeste 0 917.2 0 91
2018-09-18 09:00:00 15.7 3 Sudeste 12 Este 0 917 -0.2 91
2018-09-18 08:00:00 16 10 Este 15 Sudeste 0 917 -0.5 91
2018-09-18 07:00:00 16.1 10 Este 14 Este 0 917.2 -0.3 90
2018-09-18 06:00:00 16.4 10 Este 14 Este 0 917.2 -0.6 90
2018-09-18 05:00:00 16.7 5 Sudeste 12 Sudeste 0 917.5 -0.6 90
2018-09-18 04:00:00 16.6 9 Sudeste 12 Sur 0 917.5 -0.9 89
2018-09-18 03:00:00 17.2 8 Sudeste 13 Sudeste 0 917.8 -0.1 89
2018-09-18 02:00:00 17.6 8 Sur 13 Sudeste 0 918.1 0.2 87
2018-09-18 01:00:00 17.5 7 Sur 14 Sur 0 918.4 1 85
2018-09-18 00:00:00 18.2 9 Sur 15 Sur 0 917.9 0.7 77
2018-09-17 23:00:00 18.8 12 Sur 22 Sur 0 917.9 0.4 72
2018-09-17 22:00:00 19.4 12 Sudeste 22 Sudoeste 0 917.4 -0.2 69
2018-09-17 21:00:00 20 14 Sur 29 Sur 0 917.2 -0.9 66
2018-09-17 20:00:00 20.3 19 Sur 33 Sur 0 917.5 -1.3 62
2018-09-17 19:00:00 21.9 19 Sur 31 Sur 0 917.6 -1.6 54
2018-09-17 18:00:00 23.2 19 Sur 32 Sur 0 918.1 -2.1 48
2018-09-17 17:00:00 22.7 20 Sur 34 Sur 0 918.8 -1.6 49
2018-09-17 16:00:00 23.3 22 Sur 36 Sur 0 919.2 -1.7 49
2018-09-17 15:00:00 21.4 22 Sur 33 Sur 0 920.2 -0.1 53
2018-09-17 14:00:00 21.6 20 Sudeste 32 Sudeste 0 920.4 0.3 55
2018-09-17 13:00:00 19.5 15 Sur 24 Sudeste 0 920.9 1 70
2018-09-17 12:00:00 16.8 14 Sudeste 20 Sudeste 0 920.3 0.2 91
2018-09-17 11:00:00 14.7 10 Este 19 Este 0 920.1 -0.1 92
2018-09-17 10:00:00 14.1 11 Este 18 Este 0 919.9 -0.2 91
2018-09-17 09:00:00 13.9 13 Este 18 Sudeste 0 920.1 -0.4 90
2018-09-17 08:00:00 14.1 7 Este 18 Sudeste 0 920.2 -0.5 90
2018-09-17 07:00:00 14.2 12 Sudeste 16 Sudeste 0 920.1 -1 89
2018-09-17 06:00:00 14.4 9 Sudeste 16 Este 0 920.5 -0.7 86
2018-09-17 05:00:00 15.2 11 Este 18 Este 0 920.7 -0.7 88
2018-09-17 04:00:00 15.3 14 Este 19 Sudeste 0 921.1 -0.5 88
2018-09-17 03:00:00 16.2 14 Este 19 Sudeste 0 921.2 -0.1 87
2018-09-17 02:00:00 17.2 12 Sudeste 17 Sudeste 0 921.4 0.7 84
2018-09-17 01:00:00 18.2 12 Sudeste 18 Sur 0 921.6 1.4 79
2018-09-17 00:00:00 18.8 13 Sur 21 Sur 0 921.3 1.7 75
2018-09-16 23:00:00 20.2 14 Sur 23 Sur 0 920.7 1.2 61
2018-09-16 22:00:00 23.1 11 Sudeste 27 Sudeste 0 920.2 0.4 42
2018-09-16 21:00:00 25.5 15 Sudeste 26 Sudeste 0 919.6 -0.6 37
2018-09-16 20:00:00 26.6 8 Sudeste 16 Sudeste 0 919.5 -1.5 32
2018-09-16 19:00:00 26.6 5 Sur 18 Sudeste 0 919.8 -1.8 35
2018-09-16 18:00:00 26 0 Calma 16 Sur 0 920.2 -1.6 36
2018-09-16 17:00:00 24.1 3 Noroeste 16 Noroeste 0 921 -1.5 46
2018-09-16 16:00:00 23.3 9 Oeste 22 Sudoeste 0 921.6 -1 52
2018-09-16 15:00:00 22.4 6 Oeste 13 Oeste 0 921.8 -0.8 59
2018-09-16 14:00:00 19 4 Noroeste 12 Noroeste 0 922.5 0.6 74
2018-09-16 13:00:00 17.4 5 Sur 13 Sur 0 922.6 1.2 90
2018-09-16 12:00:00 14.7 4 Sudeste 13 Sur 0 922.6 1.5 93
2018-09-16 11:00:00 13.5 0 Calma 13 Este 0 921.9 1 93
2018-09-16 10:00:00 12.1 5 Sudeste 13 Sudeste 0 921.4 0.1 93
2018-09-16 09:00:00 12.5 3 Norte 17 Este 0 921.1 -0.4 92
2018-09-16 08:00:00 13.2 10 Este 19 Este 0 920.9 -0.6 92
2018-09-16 07:00:00 13.1 8 Este 10 Este 0.1 921.3 -0.7 91
2018-09-16 06:00:00 13.5 4 Sudeste 6 Sudeste 0 921.5 -0.8 91
2018-09-16 05:00:00 13.8 6 Sudeste 11 Este 0 921.5 -0.8 91
2018-09-16 04:00:00 14.4 5 Sudeste 11 Este 0 922 -0.2 92
2018-09-16 03:00:00 14.9 5 Este 15 Sudeste 0 922.3 0.2 92
2018-09-16 02:00:00 14.3 11 Este 14 Sudeste 0 922.3 1 91
2018-09-16 01:00:00 14.8 11 Sudeste 17 Este 0 922.2 1.5 90
2018-09-16 00:00:00 15.3 14 Este 20 Sudeste 0 922.1 1.5 88
2018-09-15 23:00:00 16 10 Sudeste 15 Este 0 921.3 0.5 88
2018-09-15 22:00:00 16.4 9 Sudeste 18 Sudeste 0 920.7 0.1 86
2018-09-15 21:00:00 17.1 10 Sudeste 22 Sudeste 0 920.6 -0.5 84
2018-09-15 20:00:00 17.3 16 Sudeste 23 Sudeste 0 920.8 -0.3 82
2018-09-15 19:00:00 17.7 14 Sudeste 21 Sudeste 0.2 920.6 -0.6 88
2018-09-15 18:00:00 15.8 12 Sudeste 30 Sudeste 2.8 921.1 0 88
2018-09-15 17:00:00 18 8 Sudeste 22 Sur 0.2 921.1 0 81
2018-09-15 16:00:00 19.3 16 Sur 27 Sudeste 0 921.2 0.2 67
2018-09-15 15:00:00 20.2 17 Sudeste 28 Sudeste 0 921.1 0.4 56
2018-09-15 14:00:00 22.8 16 Sudeste 28 Sudeste 0 921.1 0.9 52
2018-09-15 13:00:00 20.2 16 Sudeste 32 Sudeste 0 921 1.3 65
2018-09-15 12:00:00 17.7 9 Sudeste 17 Este 0 920.7 1 85
2018-09-15 11:00:00 15.1 4 Este 12 Este 0 920.2 0.9 89
2018-09-15 10:00:00 13.8 4 Noroeste 8 Sudeste 0 919.7 0.4 89
2018-09-15 09:00:00 14.2 4 Sur 13 Nordeste 0 919.7 0.1 88
2018-09-15 08:00:00 14.8 7 Nordeste 14 Este 0 919.3 -1 88
2018-09-15 07:00:00 15.3 8 Este 15 Este 0 919.3 -1.1 88
2018-09-15 06:00:00 15.8 11 Sudeste 15 Sudeste 0 919.6 -0.7 86
2018-09-15 05:00:00 16.5 10 Sudeste 15 Sudeste 0 920.3 0.3 84
2018-09-15 04:00:00 16.7 5 Sur 12 Este 0 920.4 0.6 80
2018-09-15 03:00:00 17.3 6 Sudeste 12 Sudeste 0 920.3 0.7 79
2018-09-15 02:00:00 18 7 Sudeste 10 Sudeste 0 920 1 79
2018-09-15 01:00:00 18.7 8 Sur 15 Sur 0 919.8 1.3 77
2018-09-15 00:00:00 19.3 11 Sur 18 Sudoeste 0 919.6 1.5 73
2018-09-14 23:00:00 20.3 13 Sur 23 Sur 0 919 0.9 65
2018-09-14 22:00:00 21.3 14 Sudoeste 31 Sur 0 918.5 0.2 50
2018-09-14 21:00:00 23.8 17 Sur 29 Sudoeste 0 918.1 -0.7 39
2018-09-14 20:00:00 24.8 18 Sur 28 Sur 0 918.1 -1.2 36
2018-09-14 19:00:00 25.1 16 Sur 32 Sudoeste 0 918.3 -1.3 35
2018-09-14 18:00:00 25.1 17 Sudoeste 28 Sudoeste 0 918.8 -1.6 38
2018-09-14 17:00:00 26.6 11 Sur 21 Sudeste 0 919.3 -1.2 33
2018-09-14 16:00:00 27.2 14 Sudeste 28 Sudeste 0 919.6 -0.8 34
2018-09-14 15:00:00 24.2 9 Sur 26 Sur 0 920.4 0.1 39
2018-09-14 14:00:00 23.6 15 Sur 22 Sur 0 920.5 0.3 43
2018-09-14 13:00:00 21.1 12 Sur 18 Sur 0 920.4 0.5 63
2018-09-14 12:00:00 19.1 9 Sur 14 Sudeste 0 920.3 1 79
2018-09-14 11:00:00 16.8 10 Sudeste 16 Sur 0 920.2 1.1 91
2018-09-14 10:00:00 16 6 Sudeste 11 Sudeste 0 919.9 0.5 90
2018-09-14 09:00:00 15.5 9 Sudeste 14 Sudeste 0 919.3 -0.2 88
2018-09-14 08:00:00 16 8 Sudeste 15 Sudeste 0 919.1 -0.6 88
2018-09-14 07:00:00 15.9 12 Sudeste 15 Sudeste 0 919.4 -0.6 89
2018-09-14 06:00:00 15.9 12 Sudeste 20 Sudeste 0 919.5 -0.6 89
2018-09-14 05:00:00 16 17 Sudeste 21 Sudeste 0 919.7 -0.3 89
2018-09-14 04:00:00 16.2 14 Sudeste 19 Sudeste 0 920 0.2 87
2018-09-14 03:00:00 16.8 14 Sudeste 20 Sudeste 0 920.1 0.4 84
2018-09-14 02:00:00 17.9 12 Sudeste 23 Sudeste 0 920 0.9 78
2018-09-14 01:00:00 18.9 12 Sudeste 21 Sudeste 0 919.8 1.4 74
2018-09-14 00:00:00 19.8 13 Sudeste 21 Sudeste 0 919.7 1.3 68
2018-09-13 23:00:00 21.6 12 Sur 26 Sur 0 919.1 0.6 50
2018-09-13 22:00:00 25 2 Norte 14 Nordeste 0 918.4 -0.4 31
2018-09-13 21:00:00 26.2 6 Norte 18 Norte 0 918.4 -0.9 28
2018-09-13 20:00:00 27.1 4 Norte 21 Norte 0 918.5 -1.4 27
2018-09-13 19:00:00 26.8 10 Noroeste 23 Norte 0 918.8 -1.6 28
2018-09-13 18:00:00 28.1 2 Sudoeste 19 Norte 0 919.3 -1.7 28
2018-09-13 17:00:00 26.6 8 Norte 23 Oeste 0 919.9 -1.5 31
2018-09-13 16:00:00 26.4 7 Oeste 19 Noroeste 0 920.4 -0.9 35
2018-09-13 15:00:00 24.3 6 Noroeste 16 Noroeste 0 921 -0.2 40
2018-09-13 14:00:00 23.5 7 Noroeste 14 Noroeste 0 921.4 0.6 48
2018-09-13 13:00:00 21.5 5 Noroeste 11 Noroeste 0 921.3 0.9 56
2018-09-13 12:00:00 19.5 3 Sur 8 Norte 0 921.2 0.7 78
2018-09-13 11:00:00 16.9 6 Norte 9 Norte 0 920.8 0.5 85
2018-09-13 10:00:00 15.6 0 Calma 4 Noroeste 0 920.4 0.2 90
2018-09-13 09:00:00 15.4 0 Calma 6 Oeste 0 920.5 0.1 88
2018-09-13 08:00:00 15.8 7 Norte 12 Norte 0 920.3 -0.4 89
2018-09-13 07:00:00 16 4 Norte 8 Nordeste 0 920.2 -0.3 90
2018-09-13 06:00:00 16.5 4 Sudeste 6 Sudeste 0 920.4 -1.3 89
2018-09-13 05:00:00 16.7 6 Nordeste 12 Nordeste 0 920.7 -1.5 87
2018-09-13 04:00:00 17.8 3 Sudeste 7 Sudeste 0 920.5 -1.7 87
2018-09-13 03:00:00 18.1 4 Sudeste 9 Sudeste 0 921.7 -0.2 85
2018-09-13 02:00:00 18.6 5 Sudeste 9 Sur 0 922.2 0.8 81
2018-09-13 01:00:00 19.4 4 Sur 15 Sudeste 0 922.2 1.2 77
2018-09-13 00:00:00 19.9 0 Calma 7 Sudoeste 0 921.9 0.6 70
2018-09-12 23:00:00 20.6 4 Sur 10 Sudoeste 0 921.4 0.1 66
2018-09-12 22:00:00 21.5 9 Sudoeste 18 Sudoeste 0 921 -0.4 59
2018-09-12 21:00:00 22.5 4 Noroeste 21 Sudoeste 0 921.3 -0.6 50
2018-09-12 20:00:00 25.1 12 Sudoeste 22 Sudoeste 0 921.3 -1 41
2018-09-12 19:00:00 25.6 10 Sudoeste 23 Sudoeste 0 921.4 -2 42
2018-09-12 18:00:00 24.3 9 Sudoeste 20 Sur 0 921.9 -2 45
2018-09-12 17:00:00 25.5 13 Sudoeste 22 Sudoeste 0 922.3 -1.8 46
2018-09-12 16:00:00 23.4 10 Sudoeste 19 Sudoeste 0 923.4 -0.6 51
2018-09-12 15:00:00 22.2 8 Sudoeste 17 Sur 0 923.9 0.3 58
2018-09-12 14:00:00 21.6 12 Sur 20 Sur 0 924.1 0.7 65
2018-09-12 13:00:00 19.7 14 Sur 21 Sur 0 924 0.9 72
2018-09-12 12:00:00 18.1 12 Sur 18 Sur 0 923.6 1 87
2018-09-12 11:00:00 16.3 10 Sudeste 15 Sur 0 923.4 0.7 92
2018-09-12 10:00:00 15.9 9 Sudeste 15 Sudeste 0 923.1 0.4 91
2018-09-12 09:00:00 15.3 11 Sudeste 19 Sudeste 0 922.6 -0.4 91
2018-09-12 08:00:00 15.5 15 Sudeste 19 Sudeste 0 922.7 -0.5 91
2018-09-12 07:00:00 15.5 14 Sudeste 22 Sudeste 0 922.7 -0.9 91
2018-09-12 06:00:00 15.7 15 Sudeste 24 Sudeste 0 923 -0.6 91
2018-09-12 05:00:00 16 15 Sudeste 21 Sudeste 0 923.2 -0.5 91
2018-09-12 04:00:00 15.7 14 Sudeste 21 Sudeste 0 923.6 0.3 91
2018-09-12 03:00:00 15.3 13 Este 22 Sudeste 0 923.6 0.6 90
2018-09-12 02:00:00 15.9 16 Sudeste 24 Este 0 923.7 1.1 88
2018-09-12 01:00:00 16.3 16 Este 24 Este 0 923.3 0.9 86
2018-09-12 00:00:00 16.7 14 Este 33 Sudeste 0 923 0.9 85
2018-09-11 23:00:00 17.7 22 Sudeste 33 Este 0 922.6 0.5 81
2018-09-11 22:00:00 19.2 15 Este -- -- -- 922.4 -0.1 74
2018-09-11 21:00:00 20.4 15 Sudeste 26 Sudeste 0 922.1 -1.1 68
2018-09-11 20:00:00 20.8 14 Sudeste 27 Sudeste 0 922.1 -1.1 68
2018-09-11 19:00:00 19.1 21 Sudeste 33 Sudeste 0 922.5 -1.1 78
2018-09-11 18:00:00 19.8 21 Sudeste 33 Sudeste 0 923.2 -0.7 68
2018-09-11 17:00:00 21.4 16 Sudeste 27 Sudeste 0 923.2 -0.8 62
2018-09-11 16:00:00 21.3 18 Sudeste 28 Este 0 923.6 0 56
2018-09-11 15:00:00 21 18 Sudeste 30 Sudeste 0 923.9 0.2 57
2018-09-11 14:00:00 22.5 17 Sudeste 30 Este 0 924 0.4 54
2018-09-11 13:00:00 20.4 18 Sudeste 32 Sudeste 0 923.6 0.3 65
2018-09-11 12:00:00 17 23 Sudeste 33 Sudeste 0 923.7 0.5 78
2018-09-11 11:00:00 15.6 16 Sudeste 26 Este 0 923.6 0.5 88
2018-09-11 10:00:00 13.8 13 Este 18 Este 0 923.3 0 88
2018-09-11 09:00:00 13.8 12 Este 18 Este 0 923.2 -0.1 88
2018-09-11 08:00:00 14.1 7 Este 21 Este 0 923.1 0 88
2018-09-11 07:00:00 14.2 9 Este 25 Este 0 923.3 0 88
2018-09-11 06:00:00 14.1 12 Este 20 Este 0 923.3 -0.1 88
2018-09-11 05:00:00 14.4 11 Este 25 Este 0 923.1 -0.5 88
2018-09-11 04:00:00 14.6 13 Este 25 Este 0 923.3 -0.4 88
2018-09-11 03:00:00 14.8 12 Este 22 Este 0 923.4 0 86
2018-09-11 02:00:00 14.9 12 Este 26 Este 0 923.6 0.8 84
2018-09-11 01:00:00 15.1 14 Este 39 Sudeste 0 923.7 1.3 78
2018-09-11 00:00:00 15.8 14 Este 28 Este 0 923.4 1.3 76
2018-09-10 23:00:00 16.6 15 Este 30 Sudeste 0 922.8 0.9 70
2018-09-10 22:00:00 19.2 21 Este -- -- -- 922.4 0.5 56
2018-09-10 21:00:00 21.1 23 Sudeste 38 Sudeste 0 922.1 -0.1 49
2018-09-10 20:00:00 23.2 23 Sudeste 35 Este 0 921.9 -0.5 43
2018-09-10 19:00:00 23.7 24 Sudeste 39 Sudeste 0 921.9 -0.7 44
2018-09-10 18:00:00 23.9 21 Sudeste 32 Este 0 922.2 -0.5 44
2018-09-10 17:00:00 23.9 17 Sudeste 30 Sudeste 0 922.4 -1 45
2018-09-10 16:00:00 23.2 21 Sudeste 35 Sudeste 0 922.6 -0.7 47
2018-09-10 15:00:00 22.5 15 Sudeste 24 Sudeste 0 922.7 -0.3 52
2018-09-10 14:00:00 18.2 2 Norte 26 Nordeste 0 923.4 1.3 71
2018-09-10 13:00:00 18.1 12 Este 30 Este 0 923.3 1.8 71
2018-09-10 12:00:00 15.2 7 Nordeste 19 Nordeste 0 923 2.2 91
2018-09-10 11:00:00 13.5 13 Nordeste 22 Nordeste 0 922.1 2 92
2018-09-10 10:00:00 13.3 14 Norte 25 Norte 0 921.5 0.3 93
2018-09-10 09:00:00 13.7 5 Norte 18 Este 0 920.8 -0.9 94
2018-09-10 08:00:00 12.7 9 Este 17 Este 1.1 920.1 -1.6 94
2018-09-10 07:00:00 13 12 Nordeste 35 Norte 3.6 921.2 -- 94
2018-09-10 06:00:00 13.3 22 Nordeste 37 Nordeste 11.6 921.7 0.7 94
2018-09-10 05:00:00 13.7 17 Norte 35 Norte 0.6 921.7 0.4 92
2018-09-10 04:00:00 -- -- -- -- -- -- -- -- --
2018-09-10 03:00:00 16 14 Este 21 Este 0 921 0.8 85
2018-09-10 02:00:00 15.8 6 Sudeste 11 Este 0 921.3 1.6 83
2018-09-10 01:00:00 15.7 6 Sudeste 12 Este 0 920.8 1.6 81
2018-09-10 00:00:00 16.1 7 Este 13 Sudeste 0 920.2 1.1 82
2018-09-09 23:00:00 17 0 Calma 19 Sur 0.1 919.7 1.3 82
2018-09-09 22:00:00 17.5 12 Sudeste 32 Sudeste 0.1 919.2 0.6 79
2018-09-09 21:00:00 20.1 22 Sudeste 36 Sudeste 0 919.1 0 62
2018-09-09 20:00:00 22.6 13 Sudeste 24 Sudeste 0 918.4 -1.4 45
2018-09-09 19:00:00 23.3 10 Sudeste 22 Sudeste 0 918.6 -1.6 44
2018-09-09 18:00:00 22.4 9 Sudeste 21 Sudeste 0 919.1 -1.6 47
2018-09-09 17:00:00 22.3 10 Sudeste 20 Sudeste 0 919.8 -1.4 48
2018-09-09 16:00:00 22.3 13 Sudeste 20 Sudeste 0 920.2 -1 50
2018-09-09 15:00:00 21.8 10 Sudeste 26 Sudeste 0 920.7 0.1 53
2018-09-09 14:00:00 20.3 6 Sudeste 12 Sudeste 0 921.2 1.5 67
2018-09-09 13:00:00 17.1 6 Sudoeste 19 Sudoeste 0 921.2 1.8 81
2018-09-09 12:00:00 16.7 0 Calma 9 Sur 0 920.6 1.7 83
2018-09-09 11:00:00 14 9 Nordeste 15 Nordeste 0 919.7 0.4 91
2018-09-09 10:00:00 12.5 3 Nordeste 10 Nordeste 0.1 919.4 -0.1 91
2018-09-09 09:00:00 13.1 5 Norte 11 Este 0 918.9 -1.3 92
2018-09-09 08:00:00 13.1 0 Calma 9 Este 0 919.3 -0.8 91
2018-09-09 07:00:00 14 7 Este 13 Este 0 919.5 -0.4 91
2018-09-09 06:00:00 14.9 8 Sudeste 12 Sudeste 0 920.2 0.2 91
2018-09-09 05:00:00 14.9 0 Calma 7 Norte 0 920.1 0.7 91
2018-09-09 04:00:00 14.6 5 Sur 14 Este 0 919.9 0.4 91
2018-09-09 03:00:00 14.5 13 Este 21 Este 0 920 0.9 89
2018-09-09 02:00:00 14.2 9 Este 19 Este 0 919.4 0.6 85
2018-09-09 01:00:00 14.6 10 Sudeste 19 Sudeste 0 919.5 -0.3 85
2018-09-09 00:00:00 14.8 9 Sudeste 21 Sudeste 0 919.1 0.1 85
2018-09-08 23:00:00 15.5 11 Sudeste 16 Sudeste 0.4 918.8 0.1 82
2018-09-08 22:00:00 16.6 14 Sudoeste 21 Sudoeste 0 919.8 1.2 69
2018-09-08 21:00:00 18.4 12 Sur 17 Sudoeste 0 919 0.5 50
2018-09-08 20:00:00 19.3 8 Sudoeste 22 Sur 0 918.7 -0.5 52
2018-09-08 19:00:00 19 14 Sur 22 Sur 0 918.6 -0.3 56
2018-09-08 18:00:00 20.2 13 Sudoeste 27 Sudoeste 0 918.5 0.2 51
2018-09-08 17:00:00 20.8 13 Sur 39 Sudeste 0 919.2 -0.9 48
2018-09-08 16:00:00 18.6 23 Sudeste 50 Sudeste 0 918.9 -2 54
2018-09-08 15:00:00 16.8 33 Sudeste 49 Sudeste 0.1 918.3 -1.9 74
2018-09-08 14:00:00 15.2 24 Sudeste 39 Sur 0 920.1 1.9 80
2018-09-08 13:00:00 15.8 18 Sur 30 Sur 0 920.9 2.8 78
2018-09-08 12:00:00 15.7 21 Sur 32 Sur 0 920.2 3.2 88
2018-09-08 11:00:00 14.1 16 Sudeste 26 Sudeste 0 918.2 1.2 92
2018-09-08 10:00:00 13.4 11 Sudeste 19 Sudeste 0 918.1 0.9 92
2018-09-08 09:00:00 13.1 9 Sudeste 23 Sudeste 0 917 -0.4 92
2018-09-08 08:00:00 13.7 15 Sudeste 24 Sudeste 0 917 -0.4 91
2018-09-08 07:00:00 14.1 15 Este 24 Sudeste 0 917.2 -1 91
2018-09-08 06:00:00 14.6 15 Sudeste 26 Sudeste 0 917.4 -1.1 91
2018-09-08 05:00:00 14.8 16 Sudeste 20 Sudeste 0 917.4 -0.8 89
2018-09-08 04:00:00 15.3 16 Sudeste 22 Sudeste 0 918.2 0.6 86
2018-09-08 03:00:00 15.8 14 Sudeste 22 Sur 0 918.5 1.5 84
2018-09-08 02:00:00 16.8 16 Sudeste 28 Sudeste 0 918.2 2 82
2018-09-08 01:00:00 17.3 18 Sudeste 33 Sudeste 0 917.6 1.9 82
2018-09-08 00:00:00 18 22 Sudeste 37 Sudeste 0 917 1.9 76
2018-09-07 23:00:00 19.1 24 Sudeste 40 Sudeste 0 916.2 1.6 66
2018-09-07 22:00:00 21.4 24 Sudeste 37 Sur 0 915.7 0.8 47
2018-09-07 21:00:00 23.7 24 Sudeste 37 Sudeste 0 915.1 0.1 39
2018-09-07 20:00:00 24.6 24 Sudeste 39 Sudeste 0 914.6 -0.8 37
2018-09-07 19:00:00 24.7 22 Sudeste 35 Sudeste 0 914.9 -1 36
2018-09-07 18:00:00 24.7 19 Sudeste 35 Sur 0 915 -1.3 35
2018-09-07 17:00:00 24.4 22 Sudeste 37 Sur 0 915.4 -1.4 36
2018-09-07 16:00:00 24.9 21 Sur 38 Sur 0 915.9 -0.9 38
2018-09-07 15:00:00 23.4 23 Sur 39 Sur 0 916.3 -0.5 41
2018-09-07 14:00:00 22.4 26 Sur 40 Sur 0 916.8 0.1 45
2018-09-07 13:00:00 21.5 19 Sudeste 30 Sudeste 0 916.8 0.5 57
2018-09-07 12:00:00 19.2 19 Sudeste 28 Sudeste 0 916.8 1.1 73
2018-09-07 11:00:00 16.5 13 Sudeste 22 Sudeste 0 916.7 1.1 88
2018-09-07 10:00:00 15.3 18 Sudeste 44 Este 0 916.3 0.9 90
2018-09-07 09:00:00 15.4 14 Sudeste 20 Sudeste 0 915.7 0.1 89
2018-09-07 08:00:00 15.7 13 Sudeste 19 Sudeste 0 915.6 -0.2 89
2018-09-07 07:00:00 16 12 Este 19 Este 0 915.4 -0.4 88
2018-09-07 06:00:00 16.3 14 Este 19 Este 0 915.6 -0.2 85
2018-09-07 05:00:00 16.6 8 Este 18 Este 0 915.8 -0.3 83
2018-09-07 04:00:00 17 12 Este 22 Sudeste 0 915.8 -0.3 80
2018-09-07 03:00:00 17.8 11 Este 14 Sudeste 0 915.8 0.6 75
2018-09-07 02:00:00 18.6 11 Sudeste 20 Sudeste 0 916.1 1.6 70
2018-09-07 01:00:00 19.2 10 Sudeste 21 Este 0 916.1 2.1 55
2018-09-07 00:00:00 19 7 Nordeste 9 Nordeste 0 915.2 1.4 38
2018-09-06 23:00:00 20.6 5 Norte 18 Norte 0 914.5 0.7 35
2018-09-06 22:00:00 22.8 11 Noroeste 19 Noroeste 0 914 0 31
2018-09-06 21:00:00 25.5 5 Noroeste 24 Oeste 0 913.8 -0.6 28
2018-09-06 20:00:00 25.8 4 Norte 22 Noroeste 0 913.8 -0.9 28
2018-09-06 19:00:00 24.5 6 Noroeste 22 Oeste 0 914 -0.8 29
2018-09-06 18:00:00 25.5 9 Noroeste 24 Oeste 0 914.4 -0.7 27
2018-09-06 17:00:00 26.6 13 Sudoeste 26 Sudoeste 0 914.7 -1 28
2018-09-06 16:00:00 24.6 5 Oeste 22 Sudoeste 0 914.8 -0.6 33
2018-09-06 15:00:00 23.4 8 Oeste 24 Norte 0 915.1 -0.6 40
2018-09-06 14:00:00 21.6 10 Noroeste 24 Noroeste 0 915.7 0.3 45
2018-09-06 13:00:00 19 14 Norte 26 Noroeste 0 915.4 0.4 54
2018-09-06 12:00:00 17.1 14 Noroeste 22 Noroeste 0 915.7 1 60
2018-09-06 11:00:00 15.3 13 Norte 21 Norte 0 915.4 0.9 68
2018-09-06 10:00:00 14 11 Norte 21 Norte 0 915 0.6 70
2018-09-06 09:00:00 14.7 12 Noroeste 24 Noroeste 0 914.7 0.1 66
2018-09-06 08:00:00 15.4 17 Noroeste 33 Noroeste 0 914.5 -0.6 62
2018-09-06 07:00:00 15.6 17 Noroeste 31 Noroeste 0 914.4 -1 58
2018-09-06 06:00:00 16.2 19 Noroeste 30 Noroeste 0 914.6 -0.7 55
2018-09-06 05:00:00 16.9 17 Noroeste 29 Oeste 0 915.1 -0.2 52
2018-09-06 04:00:00 17.4 16 Noroeste 26 Noroeste 0 915.4 0.2 46
2018-09-06 03:00:00 18.5 18 Noroeste 28 Noroeste 0 915.3 0.6 38
2018-09-06 02:00:00 19.1 14 Noroeste 27 Noroeste 0 915.3 1.3 32
2018-09-06 01:00:00 20.2 13 Noroeste 20 Oeste 0 915.2 1.7 28
2018-09-06 00:00:00 21.3 11 Noroeste 17 Noroeste 0 914.7 1.2 27
2018-09-05 23:00:00 22.5 13 Noroeste 24 Noroeste 0 914 0.3 25
2018-09-05 22:00:00 24.8 16 Noroeste 28 Noroeste 0 913.5 -0.3 22
2018-09-05 21:00:00 26.4 8 Noroeste 19 Sudoeste 0 913.5 -0.9 27
2018-09-05 20:00:00 27.5 4 Oeste 21 Sudoeste 0 913.7 -1.2 26
2018-09-05 19:00:00 28.6 5 Oeste 20 Oeste 0 913.8 -1.7 25
2018-09-05 18:00:00 27.3 4 Noroeste 21 Noroeste 0 914.4 -1.9 26
2018-09-05 17:00:00 28 9 Sudoeste 21 Sudoeste 0 914.9 -1.9 26
2018-09-05 16:00:00 27.1 9 Sur 18 Sudoeste 0 915.5 -1.5 31
2018-09-05 15:00:00 23.4 8 Norte 17 Noroeste 0 916.3 -0.5 37
2018-09-05 14:00:00 22.1 8 Noroeste 15 Noroeste 0 916.8 0.5 40
2018-09-05 13:00:00 20.1 8 Noroeste 17 Noroeste 0 917 1.1 47
2018-09-05 12:00:00 18.3 8 Noroeste 17 Norte 0 916.8 1 55
2018-09-05 11:00:00 16 12 Norte 21 Noroeste 0 916.3 0.7 65
2018-09-05 10:00:00 14.9 13 Norte 20 Norte 0 915.9 0.7 70
2018-09-05 09:00:00 15.6 8 Norte 12 Norte 0 915.8 1 85
2018-09-05 08:00:00 17.7 0 Calma 6 Sudeste 0 915.6 0.3 88
2018-09-05 07:00:00 18.4 5 Sudeste 8 Sudeste 0 915.2 -0.4 88
2018-09-05 06:00:00 17.8 3 Sudeste 9 Sudeste 0 914.8 -0.8 87
2018-09-05 05:00:00 18.5 6 Sudeste 13 Sudeste 0 915.3 0 87
2018-09-05 04:00:00 18.9 8 Sudeste 12 Sudeste 0 915.6 0.7 85
2018-09-05 03:00:00 19.2 7 Sur 18 Sudeste 0 915.6 1.3 84
2018-09-05 02:00:00 19.9 13 Sudeste 19 Sudeste 0 915.3 1.8 80
2018-09-05 01:00:00 20.5 15 Sur 23 Este 0 914.9 1.8 75
2018-09-05 00:00:00 21.4 6 Sudoeste 13 Sur 0 914.3 1.4 50
2018-09-04 23:00:00 22.5 7 Sudeste 22 Sur 0 913.5 0.2 34
2018-09-04 22:00:00 25 3 Sur 21 Sudoeste 0 913.1 0.1 30
2018-09-04 21:00:00 26.6 10 Sur 22 Sudoeste 0 912.9 -0.5 29
2018-09-04 20:00:00 25.5 19 Sudoeste 36 Sudoeste 0 913.3 -0.3 36
2018-09-04 19:00:00 27.3 6 Sur 23 Sudoeste 0 913 -1.2 24
2018-09-04 18:00:00 28.1 10 Sur 22 Sur 0 913.4 -1.1 24
2018-09-04 17:00:00 28.6 10 Sudoeste 26 Sur 0 913.6 -1.2 29
2018-09-04 16:00:00 26.9 4 Oeste 17 Sudoeste 0 914.2 -0.9 29
2018-09-04 15:00:00 26.1 9 Sudoeste 21 Sudoeste 0 914.5 -0.4 38
2018-09-04 14:00:00 23.8 12 Sudoeste 19 Sudoeste 0 914.8 -0.1 52
2018-09-04 13:00:00 20.5 4 Sudoeste 11 Sudoeste 0 915.1 0.4 70
2018-09-04 12:00:00 18 3 Sudeste 8 Sudeste 0 914.9 0.5 87
2018-09-04 11:00:00 16.9 4 Sudeste 9 Sudeste 0 914.9 0.6 91
2018-09-04 10:00:00 16.2 5 Sudeste 12 Sudeste 0 914.7 0.3 91
2018-09-04 09:00:00 16.5 8 Sudeste 11 Sudeste 0 914.4 -0.1 91
2018-09-04 08:00:00 16.5 7 Sudeste 14 Sudeste 0 914.3 -0.5 91
2018-09-04 07:00:00 16.1 10 Sudeste 13 Sudeste 0 914.4 -0.5 91
2018-09-04 06:00:00 16.9 8 Sur 20 Sur 0 914.5 -0.6 91
2018-09-04 05:00:00 17.3 13 Sur 23 Sur 0 914.8 -0.4 91
2018-09-04 04:00:00 17.4 13 Sur 20 Sudeste 0 914.9 -0.3 91
2018-09-04 03:00:00 17.5 10 Sur 18 Sudeste 0 915.1 0.3 89
2018-09-04 02:00:00 18 14 Sur 22 Sur 0 915.2 2 86
2018-09-04 01:00:00 18.9 16 Sur 24 Sur 0 915.2 1.7 79
2018-09-04 00:00:00 19.1 12 Sudeste 22 Sudeste 0 914.8 1.1 55
2018-09-03 23:00:00 20.6 3 Sudeste 27 Sudeste 0 913.2 -0.1 47
2018-09-03 22:00:00 21.7 12 Sudeste 56 Sur 0 913.5 0 52
2018-09-03 21:00:00 22.9 13 Sudoeste 47 Sudeste 0 913.7 0.9 43
2018-09-03 20:00:00 22.5 29 Sur 81 Sur 0 913.3 -0.6 38
2018-09-03 19:00:00 24.9 21 Sur 39 Sur 0 913.5 -1.1 42
2018-09-03 18:00:00 27 10 Este 21 Este 0 912.8 -2.7 36
2018-09-03 17:00:00 28.7 11 Sudeste 23 Sudeste 0 913.9 -1.2 36
2018-09-03 16:00:00 27.1 6 Sur 15 Sudoeste 0 914.6 -1.4 42
2018-09-03 15:00:00 26.4 8 Oeste 17 Oeste 0 915.5 -0.2 48
2018-09-03 14:00:00 20.9 5 Este 21 Oeste 0.3 915.1 -0.3 75
2018-09-03 13:00:00 22.8 7 Oeste 16 Sudoeste 0 916 0.7 65
2018-09-03 12:00:00 19.6 6 Norte 16 Norte 0.4 915.7 0.9 77
2018-09-03 11:00:00 19.3 5 Este 21 Sudeste 0 915.4 1 81
2018-09-03 10:00:00 17.3 17 Este 23 Este 0 915.3 0.9 85
2018-09-03 09:00:00 17.7 6 Sudeste 13 Sudeste 0 914.8 -0.2 82
2018-09-03 08:00:00 17.9 10 Sudeste 14 Sudeste 0 914.4 -1.3 79
2018-09-03 07:00:00 18 11 Sudeste 19 Este 0 914.4 -1.4 78
2018-09-03 06:00:00 18.6 12 Sudeste 20 Sudeste 0 915 -2 77
2018-09-03 05:00:00 19.3 10 Sur 23 Sudoeste 0 915.7 -0.4 75
2018-09-03 04:00:00 19.6 14 Este 21 Sudeste 0 915.8 -0.2 72
2018-09-03 03:00:00 20.6 7 Oeste 49 Oeste 0.8 917 1.1 67
2018-09-03 02:00:00 21.9 7 Sudeste 17 Sur 0 916.1 0.4 56
2018-09-03 01:00:00 22.6 8 Sur 17 Sudoeste 0 916 0.5 52
2018-09-03 00:00:00 23.5 4 Sur 12 Sur 0 915.9 0.5 48
2018-09-02 23:00:00 24.5 6 Sur 16 Sudoeste 0 915.7 0.1 43
2018-09-02 22:00:00 26.5 9 Sur 26 Sudoeste 0 915.5 -0.4 35
2018-09-02 21:00:00 28.8 15 Sudoeste 24 Sur 0 915.4 -1 30
2018-09-02 20:00:00 30.4 15 Sur 24 Sudoeste 0 915.6 -1.2 28
2018-09-02 19:00:00 31.9 13 Sudoeste 23 Sudoeste 0 915.9 -1.5 27
2018-09-02 18:00:00 32.2 12 Sudoeste 23 Sudoeste 0 916.4 -1.6 27
2018-09-02 17:00:00 31.1 8 Sudoeste 18 Sudoeste 0 916.8 -1.7 28
2018-09-02 16:00:00 30 10 Sur 17 Sudoeste 0 917.4 -1.5 31
2018-09-02 15:00:00 28.5 8 Sur 19 Sudeste 0 918 -0.8 34
2018-09-02 14:00:00 26.2 12 Sudeste 18 Sur 0 918.5 -0.1 41
2018-09-02 13:00:00 22.8 12 Sur 19 Sur 0 918.9 0.6 52
2018-09-02 12:00:00 19.4 13 Sudeste 18 Sur 0 918.8 0.5 70
2018-09-02 11:00:00 16.3 10 Sudeste 18 Sudeste 0 918.6 0.4 81
2018-09-02 10:00:00 15.3 14 Sudeste 19 Sudeste 0 918.3 0 81
2018-09-02 09:00:00 15.3 14 Sudeste 19 Sudeste 0 918.3 -0.4 80
2018-09-02 08:00:00 15.6 14 Sudeste 20 Sudeste 0 918.2 -0.9 76
2018-09-02 07:00:00 15.9 16 Sudeste 24 Sudeste 0 918.3 -0.7 75
2018-09-02 06:00:00 16.3 19 Sudeste 23 Sudeste 0 918.7 -0.4 75
2018-09-02 05:00:00 16.6 15 Sudeste 20 Sudeste 0 919.1 0.1 74
2018-09-02 04:00:00 17.2 15 Sudeste 21 Sudeste 0 919 0.2 70
2018-09-02 03:00:00 18.2 17 Sudeste 23 Sudeste 0 919.1 0.5 66
2018-09-02 02:00:00 19.3 13 Sur 21 Sur 0 919 1.1 62
2018-09-02 01:00:00 20.7 12 Sudeste 24 Sur 0 918.8 1.3 52
2018-09-02 00:00:00 22 15 Sudeste 27 Sur 0 918.6 1 46
2018-09-01 23:00:00 23.3 8 Sur 20 Sur 0 917.9 0.2 42
2018-09-01 22:00:00 25.5 15 Sur 27 Sur 0 917.5 -0.3 35
2018-09-01 21:00:00 27.6 17 Sur 27 Sur 0 917.6 -0.5 31
2018-09-01 20:00:00 28.7 15 Sur 29 Sur 0 917.7 -1.1 29
2018-09-01 19:00:00 29.3 17 Sur 32 Sur 0 917.8 -1.3 30
2018-09-01 18:00:00 29.2 17 Sur 30 Sudoeste 0 918.1 -1.7 30
2018-09-01 17:00:00 28.3 17 Sur 31 Sudoeste 0 918.8 -1.4 32
2018-09-01 16:00:00 26.9 21 Sur 32 Sur 0 919.1 -1.1 35
2018-09-01 15:00:00 26 18 Sur 32 Sur 0 919.8 -0.4 38
2018-09-01 14:00:00 24.1 18 Sur 31 Sur 0 920.2 0.3 45
2018-09-01 13:00:00 21.7 21 Sur 32 Sur 0 920.2 0.4 52
2018-09-01 12:00:00 19.3 18 Sur 27 Sur 0 920.2 1.1 71
2018-09-01 11:00:00 16.8 18 Sur 25 Sur 0 919.9 0.8 87
2018-09-01 10:00:00 16.3 15 Sur 20 Sur 0 919.8 0.6 91
2018-09-01 09:00:00 16.6 14 Sudeste 20 Sudeste 0 919.1 -0.2 91
2018-09-01 08:00:00 16.8 15 Sudeste 19 Sudeste 0 919.1 -0.1 89
2018-09-01 07:00:00 17.3 16 Sudeste 23 Sudeste 0 919.2 -0.4 89
2018-09-01 06:00:00 17.2 15 Sudeste 24 Sudeste 0 919.3 -0.3 89
2018-09-01 05:00:00 16.9 20 Sudeste 27 Sudeste 0 919.2 -0.3 89
2018-09-01 04:00:00 17.3 17 Sudeste 27 Sudeste 0 919.6 0.2 87
2018-09-01 03:00:00 18 18 Sudeste 28 Sudeste 0 919.6 0.9 84
2018-09-01 02:00:00 18.8 18 Sudeste 29 Sudeste 0 919.5 1.5 79
2018-09-01 01:00:00 20.2 18 Sudeste 25 Sudeste 0 919.4 2.2 69
2018-09-01 00:00:00 21.9 14 Sudeste 26 Sur 0 918.7 1.6 56
2018-08-31 23:00:00 23.7 16 Sur 24 Sur 0 918 0.7 45
2018-08-31 22:00:00 26.5 13 Sur 20 Sudoeste 0 917.2 -0.3 33
2018-08-31 21:00:00 29.5 10 Sudoeste 20 Sudoeste 0 917.1 -0.7 28
2018-08-31 20:00:00 30.3 7 Oeste 20 Oeste 0 917.3 -0.9 27
2018-08-31 19:00:00 30.2 13 Sudoeste 26 Sudoeste 0 917.5 -1.3 28
2018-08-31 18:00:00 30.3 17 Sur 25 Sur 0 917.8 -1.4 31
2018-08-31 17:00:00 29.3 9 Sudeste 22 Sur 0 918.2 -1.5 32
2018-08-31 16:00:00 28.3 11 Sur 25 Sudeste 0 918.8 -0.9 35
2018-08-31 15:00:00 26.8 10 Sur 21 Sur 0 919.2 -0.6 39
2018-08-31 14:00:00 24.9 11 Sur 19 Sur 0 919.7 0.3 48
2018-08-31 13:00:00 22.5 11 Sur 17 Sur 0 919.7 0.6 64
2018-08-31 12:00:00 19.7 8 Sur 14 Sur 0 919.8 1 77
2018-08-31 11:00:00 17.2 6 Sudeste 13 Este 0 919.4 0.5 91
2018-08-31 10:00:00 16.3 10 Sudeste 17 Sudeste 0 919.1 0 90
2018-08-31 09:00:00 16.9 11 Sudeste 20 Sudeste 0 918.8 -0.5 89
2018-08-31 08:00:00 16.9 11 Sudeste 19 Sudeste 0 918.9 -0.9 89
2018-08-31 07:00:00 17 12 Sudeste 21 Sur 0 919.1 -1 88
2018-08-31 06:00:00 17.3 15 Sur 24 Sudeste 0 919.3 -0.6 88
2018-08-31 05:00:00 17.1 16 Sudeste 21 Sudeste 0 919.8 -0.3 89
2018-08-31 04:00:00 17.6 14 Sur 22 Sudeste 0 920.1 0.2 88
2018-08-31 03:00:00 18.2 15 Sudeste 23 Sudeste 0 919.9 0.3 85
2018-08-31 02:00:00 18.6 9 Sudeste 17 Sudeste 0 920.1 1.2 81
2018-08-31 01:00:00 19.5 14 Sudeste 20 Sudeste 0 919.9 1.4 77
2018-08-31 00:00:00 20.6 13 Sudeste 19 Sur 0 919.6 1.1 67
2018-08-30 23:00:00 22.2 14 Sur 25 Sur 0 918.9 0.3 58
2018-08-30 22:00:00 24.6 13 Sur 23 Sur 0 918.5 -0.2 44
2018-08-30 21:00:00 25.5 14 Sur 28 Sur 0 918.5 -0.6 41
2018-08-30 20:00:00 27 15 Sur 28 Sur 0 918.6 -1 38
2018-08-30 19:00:00 27.6 13 Sur 30 Sur 0 918.7 -1.4 34
2018-08-30 18:00:00 27.7 13 Sur 31 Sudeste 0 919.1 -1.2 35
2018-08-30 17:00:00 26.7 20 Sur 35 Sudeste 0 919.6 -1.3 36
2018-08-30 16:00:00 26.3 20 Sudeste 33 Sudeste 0 920.1 -1.1 38
2018-08-30 15:00:00 24.7 18 Sudeste 31 Sudeste 0 920.3 -0.7 46
2018-08-30 14:00:00 23.2 14 Sudeste 27 Sudeste 0 920.9 0.4 57
2018-08-30 13:00:00 20.5 16 Sudeste 27 Sudeste 0 921.2 1.3 70
2018-08-30 12:00:00 18.4 13 Sudeste 21 Sudeste 0 921 1.7 84
2018-08-30 11:00:00 17.3 10 Sudeste 17 Sur 0 920.5 1.2 91
2018-08-30 10:00:00 16.4 6 Sudeste 13 Este 0 919.9 0.8 91
2018-08-30 09:00:00 15.8 9 Sudeste 17 Este 0 919.3 0.2 89
2018-08-30 08:00:00 16.3 14 Sudeste 27 Este 0 919.3 -0.3 89
2018-08-30 07:00:00 16.4 19 Este 30 Este 0 919.1 -1 89
2018-08-30 06:00:00 16.8 14 Este 32 Este 0 919.1 -0.8 91
2018-08-30 05:00:00 17.2 13 Este 29 Este 0 919.6 0.7 91
2018-08-30 04:00:00 17.6 18 Sudeste 26 Sudeste 0 920.1 1.1 89
2018-08-30 03:00:00 18.3 11 Este 20 Este 0 919.9 0.1 89
2018-08-30 02:00:00 18.2 10 Sudeste 19 Este 0 918.9 1 88
2018-08-30 01:00:00 17.4 7 Sudoeste 32 Sudoeste 2.2 919 2.4 85
2018-08-30 00:00:00 16.8 11 Sudeste 54 Sudeste 0.2 919.8 3.6 80
2018-08-29 23:00:00 22.5 26 Sudeste 47 Este 0 917.9 1.8 52
2018-08-29 22:00:00 28.3 5 Noroeste 17 Sudoeste 0 916.6 0.2 31
2018-08-29 21:00:00 30.1 3 Sudoeste 16 Sur 0 916.2 -0.6 29
2018-08-29 20:00:00 30.8 8 Sudoeste 20 Sudoeste 0 916.1 -1.4 28
2018-08-29 19:00:00 30.9 3 Sudoeste 22 Sudoeste 0 916.4 -1.3 29
2018-08-29 18:00:00 29.9 3 Sudoeste 19 Noroeste 0 916.8 -1.4 30
2018-08-29 17:00:00 29.3 8 Oeste 21 Sudoeste 0 917.5 -0.8 31
2018-08-29 16:00:00 27.9 2 Oeste 17 Oeste 0 917.7 -0.5 36
2018-08-29 15:00:00 26.3 5 Noroeste 21 Noroeste 0 918.2 0 39
2018-08-29 14:00:00 24.7 10 Noroeste 23 Noroeste 0 918.3 0.3 42
2018-08-29 13:00:00 23.3 11 Noroeste 19 Noroeste 0 918.2 0.5 45
2018-08-29 12:00:00 22.3 4 Sur 10 Este 0 918.2 0.8 50
2018-08-29 11:00:00 18.4 8 Este 14 Sudeste 0 918 0.7 63
2018-08-29 10:00:00 16.4 3 Sudeste 14 Este 0 917.7 0.3 61
2018-08-29 09:00:00 16.7 10 Sudeste 17 Este 0 917.4 -0.1 55
2018-08-29 08:00:00 16.7 13 Este 20 Sudeste 0 917.3 -0.4 52
2018-08-29 07:00:00 17.6 6 Sudeste 15 Sudeste 0 917.4 -0.5 50
2018-08-29 06:00:00 17.7 10 Este 19 Este 0 917.5 0.1 50
2018-08-29 05:00:00 18 15 Este 21 Sudeste 0 917.7 0 50
2018-08-29 04:00:00 18.8 12 Sudeste 26 Sudeste 0 917.9 0.5 48
2018-08-29 03:00:00 19.7 16 Sudeste 27 Sudeste 0 917.4 -0.7 46
2018-08-29 02:00:00 20.6 16 Sur 27 Noroeste 0 917.7 1.6 49
2018-08-29 01:00:00 21.6 12 Sur 26 Oeste 0 917.4 0.2 49
2018-08-29 00:00:00 22.2 29 Sudoeste 54 Sur 0 918.1 2 45
2018-08-28 23:00:00 24.7 38 Sur 64 Sur 0 916.1 -0.2 31
2018-08-28 22:00:00 25.9 24 Sur 39 Sudeste 0 917.2 0 35
2018-08-28 21:00:00 27.5 20 Sudeste 39 Sudoeste 0 916.1 -1.6 30
2018-08-28 20:00:00 30.1 22 Sur 37 Sur 0 916.3 -1.5 27
2018-08-28 19:00:00 27.7 19 Sur 34 Sur 0 917.2 -1.2 27
2018-08-28 18:00:00 30.3 20 Sur 35 Sur 0 917.7 -1.3 24
2018-08-28 17:00:00 30.2 19 Sur 32 Sur 0 917.8 -1.5 24
2018-08-28 16:00:00 29.1 14 Sur 23 Sur 0 918.4 -0.5 28
2018-08-28 15:00:00 25.1 15 Sur 22 Sur 0 919 0.3 34
2018-08-28 14:00:00 24.9 16 Sur 24 Sur 0 919.3 0.7 38
2018-08-28 13:00:00 25.3 11 Sur 17 Sur 0 918.9 0.4 38
2018-08-28 12:00:00 23.1 10 Sudeste 18 Sudeste 0 918.7 0.4 51
2018-08-28 11:00:00 19 12 Este 21 Este 0 918.6 0.5 69
2018-08-28 10:00:00 17.3 13 Este -- -- -- 918.5 0.7 73
2018-08-28 09:00:00 17.6 10 Sudeste 23 Sur 0 918.3 0.3 71
2018-08-28 08:00:00 17.7 15 Sur 27 Sudeste 0 918.1 -0.1 74
2018-08-28 07:00:00 17.9 18 Sudeste 26 Sudeste 0 917.8 -0.5 76
2018-08-28 06:00:00 18.5 15 Sudeste 26 Sudeste 0 918 -0.6 77
2018-08-28 05:00:00 18.9 17 Sudeste 30 Sur 0 918.2 -0.9 77
2018-08-28 04:00:00 19.8 20 Sudeste 28 Sudeste 0 918.3 -0.7 72
2018-08-28 03:00:00 20.2 13 Sudeste 22 Sudeste 0 918.6 0.4 68
2018-08-28 02:00:00 20.8 13 Sudeste 19 Sudeste 0 919.1 1.7 65
2018-08-28 01:00:00 21.9 12 Sudeste 17 Sur 0 919 2.4 57
2018-08-28 00:00:00 23.2 8 Sur 16 Sur 0 918.2 1.5 49
2018-08-27 23:00:00 24.8 13 Sur 25 Sur 0 917.4 0.7 42
2018-08-27 22:00:00 27.3 17 Sur 28 Sur 0 916.6 -0.2 32
2018-08-27 21:00:00 29.8 15 Sur 25 Sur 0 916.7 -0.4 25
2018-08-27 20:00:00 31 13 Sur 29 Sur 0 916.7 -1 23
2018-08-27 19:00:00 31.7 11 Sur 26 Sur 0 916.8 -1.1 24
2018-08-27 18:00:00 30.8 15 Sur 31 Sur 0 917.1 -1 28
2018-08-27 17:00:00 29.7 13 Sur 26 Sur 0 917.7 -0.5 35
2018-08-27 16:00:00 28.1 14 Sur 25 Sudeste 0 917.9 -0.2 41
2018-08-27 15:00:00 26.4 15 Sur 26 Sur 0 918.1 0.3 46
2018-08-27 14:00:00 24.1 18 Sudeste 27 Sur 0 918.2 0.5 54
2018-08-27 13:00:00 22.3 13 Sur 21 Sur 0 918.1 0.9 63
2018-08-27 12:00:00 19.3 13 Sur 18 Sudeste 0 917.8 1 78
2018-08-27 11:00:00 17.9 13 Sur 18 Sudeste 0 917.7 1 88
2018-08-27 10:00:00 17.6 10 Sudeste 18 Sur 0 917.2 0.4 89
2018-08-27 09:00:00 17.7 12 Sur 18 Sur 0 916.8 0 89
2018-08-27 08:00:00 18 12 Sur 17 Sudeste 0 916.7 -0.2 89
2018-08-27 07:00:00 18.2 12 Sur 19 Sudeste 0 916.8 -0.2 89
2018-08-27 06:00:00 18.2 12 Sudeste 19 Sur 0 916.8 -0.2 89
2018-08-27 05:00:00 18.1 14 Sudeste 21 Sudeste 0 916.9 0.2 87
2018-08-27 04:00:00 18.1 14 Sudeste 20 Sudeste 0 917 0.4 84
2018-08-27 03:00:00 19.1 10 Sudeste 17 Sudeste 0 917 0.8 78
2018-08-27 02:00:00 20.1 12 Sur 24 Sudeste 0 916.7 1 71
2018-08-27 01:00:00 20.9 8 Sur 12 Sur 0 916.6 1.5 63
2018-08-27 00:00:00 22.5 0 Calma 13 Sur 0 916.2 1.3 52
2018-08-26 23:00:00 24.2 12 Sur 22 Sur 0 915.7 0.9 43
2018-08-26 22:00:00 27.3 15 Sudoeste 22 Sudoeste 0 915.1 0.1 30
2018-08-26 21:00:00 29.8 9 Sudoeste 17 Sudoeste 0 914.9 -0.6 25
2018-08-26 20:00:00 30.8 12 Sudoeste 21 Sudoeste 0 914.8 -1.3 24
2018-08-26 19:00:00 30.9 4 Sur 21 Sudoeste 0 915 -1.5 23
2018-08-26 18:00:00 30.6 7 Sur 18 Sur 0 915.5 -1.7 25
2018-08-26 17:00:00 29.1 7 Sur 19 Sudoeste 0 916.1 -1.6 28
2018-08-26 16:00:00 27.7 12 Sur 25 Sudoeste 0 916.5 -1.3 35
2018-08-26 15:00:00 25.7 14 Sur 26 Sur 0 917.2 -0.4 41
2018-08-26 14:00:00 23.7 16 Sur 28 Sur 0 917.7 0.5 51
2018-08-26 13:00:00 21.5 17 Sur 26 Sur 0 917.8 0.9 61
2018-08-26 12:00:00 18.8 17 Sur 26 Sur 0 917.6 1.2 77
2018-08-26 11:00:00 17.7 17 Sur 25 Sur 0 917.2 1 88
2018-08-26 10:00:00 17.4 10 Sur 21 Sudeste 0 916.9 0.9 90
2018-08-26 09:00:00 17.4 15 Sudeste 22 Sudeste 0 916.4 0.4 90
2018-08-26 08:00:00 17.2 14 Sudeste 22 Sur 0 916.2 0.2 90
2018-08-26 07:00:00 17.2 14 Sudeste 23 Sudeste 0 916 -0.1 89
2018-08-26 06:00:00 17.2 18 Sudeste 27 Sudeste 0 916 0 88
2018-08-26 05:00:00 17.4 15 Sudeste 30 Sudeste 0 916 0.4 88
2018-08-26 04:00:00 17.8 19 Sudeste 26 Sudeste 0 916.1 0.9 88
2018-08-26 03:00:00 18.2 19 Sudeste 28 Este 0 916 1.5 86
2018-08-26 02:00:00 19 21 Sudeste 31 Sudeste 0 915.6 1.5 81
2018-08-26 01:00:00 21.7 17 Sudeste 33 Sudeste 0 915.2 1.4 63
2018-08-26 00:00:00 23.2 6 Sur 11 Sur 0 914.5 1.1 52
2018-08-25 23:00:00 25.1 0 Calma 21 Sudoeste 0 914.1 0.5 39
2018-08-25 22:00:00 27.1 15 Sudoeste 23 Sudoeste 0 913.8 -0.3 27
2018-08-25 21:00:00 29.6 10 Noroeste 30 Sudoeste 0 913.4 -1.3 18
2018-08-25 20:00:00 30.5 10 Noroeste 25 Sudoeste 0 913.6 -1.4 19
2018-08-25 19:00:00 29.9 14 Noroeste 28 Noroeste 0 914.1 -1.6 20
2018-08-25 18:00:00 29.3 11 Noroeste 33 Noroeste 0 914.7 -1.6 19
2018-08-25 17:00:00 29.2 11 Noroeste 28 Noroeste 0 915 -2.2 19
2018-08-25 16:00:00 29.2 6 Sudoeste 16 Sudoeste 0 915.7 -1.5 24
2018-08-25 15:00:00 27.3 7 Sudoeste 13 Sudoeste 0 916.3 -1.1 33
2018-08-25 14:00:00 24.8 6 Sudoeste 12 Sur 0 917.2 0.2 43
2018-08-25 13:00:00 22.2 5 Sur 9 Sur 0 917.2 0.5 58
2018-08-25 12:00:00 18.6 3 Sudoeste 6 Sudeste 0 917.4 1 73
2018-08-25 11:00:00 15.5 2 Sudeste 5 Este 0 917 0.5 89
2018-08-25 10:00:00 14.1 0 Calma 4 Sur 0 916.7 0.4 88
2018-08-25 09:00:00 14.3 0 Calma 6 Sur 0 916.4 -0.1 87
2018-08-25 08:00:00 14.9 4 Sur 7 Sur 0 916.5 0 75
2018-08-25 07:00:00 17.4 3 Nordeste 12 Este 0 916.3 -0.5 62
2018-08-25 06:00:00 18.1 9 Este 13 Sudeste 0 916.5 -0.6 58
2018-08-25 05:00:00 19.3 6 Sudeste 13 Este 0 916.5 -0.6 55
2018-08-25 04:00:00 20 9 Sudeste 16 Sudeste 0 916.8 -0.5 51
2018-08-25 03:00:00 20 11 Sudeste 13 Este 0 917.1 0.1 46
2018-08-25 02:00:00 21.4 5 Sudeste 10 Sudeste 0 917.1 0.6 42
2018-08-25 01:00:00 21.3 0 Calma 8 Nordeste 0 917.3 0.8 42
2018-08-25 00:00:00 22.2 0 Calma 7 Oeste 0 917 0.5 41
2018-08-24 23:00:00 23.7 6 Oeste 12 Sudoeste 0 916.5 0.1 36
2018-08-24 22:00:00 25.8 12 Sudoeste 32 Sudoeste 0 916.5 -0.4 32
2018-08-24 21:00:00 27.9 23 Sudoeste 36 Sudoeste 0 916.5 -1.1 28
2018-08-24 20:00:00 29.3 10 Oeste 24 Oeste 0 916.4 -1.8 26
2018-08-24 19:00:00 29.4 10 Norte 28 Noroeste 0 916.9 -1.8 26
2018-08-24 18:00:00 30.6 7 Sudoeste 20 Oeste 0 917.6 -1.5 28
2018-08-24 17:00:00 29.8 11 Sudoeste 21 Sudoeste 0 918.2 -1.3 28
2018-08-24 16:00:00 27.8 6 Oeste 19 Oeste 0 918.7 -1 35
2018-08-24 15:00:00 26.1 9 Oeste 21 Noroeste 0 919.1 -0.6 38
2018-08-24 14:00:00 24.6 8 Oeste 14 Oeste 0 919.5 0.2 44
2018-08-24 13:00:00 22 5 Sudoeste 9 Sudoeste 0 919.7 0.8 68
2018-08-24 12:00:00 18.6 3 Sudoeste 6 Sur 0 919.7 1.1 74
2018-08-24 11:00:00 16.5 0 Calma 5 Norte 0 919.3 1 76
2018-08-24 10:00:00 14.7 0 Calma 7 Sudeste 0 918.9 0.6 75
2018-08-24 09:00:00 15.6 4 Sudeste 10 Sudeste 0 918.6 0.1 74
2018-08-24 08:00:00 15.9 4 Este 9 Este 0 918.3 -0.3 74
2018-08-24 07:00:00 16.3 2 Norte 14 Norte 0 918.3 -1.1 72
2018-08-24 06:00:00 16.8 11 Norte 14 Norte 0 918.5 -1.2 72
2018-08-24 05:00:00 16.6 4 Nordeste 11 Norte 0 918.6 -1.1 72
2018-08-24 04:00:00 16.5 11 Norte 16 Norte 0 919.4 -0.7 74
2018-08-24 03:00:00 16.9 2 Noroeste 7 Oeste 0 919.7 -0.3 71
2018-08-24 02:00:00 16.7 0 Calma 5 Sur 0 919.7 0.7 70
2018-08-24 01:00:00 16.6 3 Sur 8 Sudeste 0 920.1 1.2 73
2018-08-24 00:00:00 17 6 Sudeste 21 Sudoeste 0 920 1.3 73